Time;durP1;ratioP1;P1;durP2;ratioP2;P2;SDS_P1;SDS_P2;PMS_P1;PMS_P2;Temp;Humidity;BMP_temperature;BMP_pressure;BME280_temperature;BME280_humidity;BME280_pressure;Samples;Min_cycle;Max_cycle;Signal;HPM_P1;HPM_P2
2021/01/21 00:02:26;;;;;;;2.00;1.58;;;22.10;32.40;;;;;;5054443;28;20513;-60
2021/01/21 00:04:53;;;;;;;2.72;1.45;;;22.10;32.40;;;;;;5051716;28;20048;-61
2021/01/21 00:07:20;;;;;;;1.70;1.38;;;22.10;32.40;;;;;;5049765;28;20052;-61
2021/01/21 00:09:47;;;;;;;2.08;1.35;;;22.10;32.40;;;;;;5049634;28;20103;-61
2021/01/21 00:12:14;;;;;;;1.58;1.35;;;22.10;32.40;;;;;;5049590;28;20045;-61
2021/01/21 00:14:40;;;;;;;1.73;1.63;;;22.20;32.40;;;;;;5048713;28;20053;-60
2021/01/21 00:17:07;;;;;;;1.65;1.25;;;22.10;32.30;;;;;;5049006;28;20072;-61
2021/01/21 00:19:34;;;;;;;2.03;1.45;;;22.10;32.30;;;;;;5049366;28;20632;-61
2021/01/21 00:22:01;;;;;;;1.85;1.63;;;22.10;32.30;;;;;;5048905;28;20049;-61
2021/01/21 00:24:27;;;;;;;2.22;1.80;;;22.10;32.30;;;;;;5049137;28;20083;-61
2021/01/21 00:26:54;;;;;;;2.33;1.58;;;22.20;32.40;;;;;;5048793;28;20112;-61
2021/01/21 00:29:21;;;;;;;2.55;2.20;;;22.10;32.30;;;;;;5049031;28;20044;-61
2021/01/21 00:31:47;;;;;;;1.92;1.58;;;22.10;32.30;;;;;;5049360;28;20489;-60
2021/01/21 00:34:14;;;;;;;2.17;1.20;;;22.10;32.30;;;;;;5048789;28;20053;-61
2021/01/21 00:36:41;;;;;;;2.40;1.40;;;22.10;32.30;;;;;;5049006;28;20045;-61
2021/01/21 00:39:11;;;;;;;2.05;1.42;;;22.10;32.30;;;;;;5048381;28;20143;-61
2021/01/21 00:41:37;;;;;;;1.15;0.95;;;22.10;32.30;;;;;;5029788;28;20132;-61
2021/01/21 00:44:04;;;;;;;1.05;1.00;;;22.10;32.30;;;;;;5048639;28;20049;-61
2021/01/21 00:46:31;;;;;;;1.95;1.70;;;22.10;32.40;;;;;;5049055;28;20068;-61
2021/01/21 00:48:58;;;;;;;1.40;1.13;;;22.00;32.40;;;;;;5048685;28;20295;-61
2021/01/21 00:51:26;;;;;;;1.42;1.30;;;22.10;32.40;;;;;;5031207;28;20071;-61
2021/01/21 00:53:53;;;;;;;2.13;1.63;;;22.00;32.40;;;;;;5048453;28;20087;-60
2021/01/21 00:56:20;;;;;;;2.35;1.45;;;22.00;32.40;;;;;;5048816;28;20056;-61
2021/01/21 00:58:46;;;;;;;1.75;1.40;;;22.00;32.40;;;;;;5048187;28;20140;-61
2021/01/21 01:01:13;;;;;;;1.63;1.20;;;22.00;32.40;;;;;;5048999;28;20072;-61
2021/01/21 01:03:40;;;;;;;0.90;0.90;;;22.00;32.30;;;;;;5048077;28;20155;-61
2021/01/21 01:06:07;;;;;;;1.60;1.20;;;22.10;32.40;;;;;;5049040;28;20053;-61
2021/01/21 01:08:34;;;;;;;2.20;1.35;;;22.10;32.30;;;;;;5048120;28;20127;-64
2021/01/21 01:11:02;;;;;;;1.10;1.00;;;22.10;32.30;;;;;;5048666;28;20132;-61
2021/01/21 01:13:28;;;;;;;1.38;1.27;;;22.10;32.30;;;;;;5047884;28;20080;-61
2021/01/21 01:15:55;;;;;;;1.15;1.05;;;22.10;32.30;;;;;;5048462;28;20080;-61
2021/01/21 01:18:22;;;;;;;1.20;1.10;;;22.00;32.30;;;;;;5047920;28;20171;-60
2021/01/21 01:20:49;;;;;;;1.20;1.10;;;22.10;32.30;;;;;;5030922;28;20053;-61
2021/01/21 01:23:16;;;;;;;1.70;1.10;;;22.10;32.30;;;;;;5048187;28;20053;-60
2021/01/21 01:25:42;;;;;;;1.20;1.10;;;22.00;32.30;;;;;;5047667;28;20051;-61
2021/01/21 01:28:09;;;;;;;1.35;0.95;;;22.10;32.30;;;;;;5048033;28;20112;-60
2021/01/21 01:30:36;;;;;;;0.98;0.82;;;22.00;32.30;;;;;;5048196;28;20095;-61
2021/01/21 01:33:03;;;;;;;1.33;0.90;;;22.00;32.30;;;;;;5048102;28;20068;-60
2021/01/21 01:35:30;;;;;;;1.08;0.95;;;22.00;32.30;;;;;;5048267;28;20110;-60
2021/01/21 01:37:56;;;;;;;1.30;0.90;;;22.00;32.30;;;;;;5047239;28;20102;-61
2021/01/21 01:40:23;;;;;;;1.13;0.95;;;22.00;32.30;;;;;;5047816;28;20044;-61
2021/01/21 01:42:50;;;;;;;1.45;0.93;;;22.00;32.30;;;;;;5048507;28;20224;-61
2021/01/21 01:45:16;;;;;;;0.80;0.80;;;22.00;32.30;;;;;;5048122;28;20337;-61
2021/01/21 01:47:45;;;;;;;0.70;0.70;;;22.00;32.30;;;;;;5047795;28;20091;-60
2021/01/21 01:50:14;;;;;;;0.93;0.73;;;22.00;32.30;;;;;;5046858;28;20048;-61
2021/01/21 01:52:41;;;;;;;1.38;1.08;;;22.00;32.30;;;;;;5047641;28;20168;-60
2021/01/21 01:55:13;;;;;;;0.93;0.90;;;22.00;32.30;;;;;;5047889;28;20056;-61
2021/01/21 01:57:53;;;;;;;1.30;0.77;;;22.00;32.30;;;;;;5048075;28;20080;-61
2021/01/21 02:00:21;;;;;;;;;;;22.00;32.30;;;;;;5045603;28;20072;-61
2021/01/21 02:02:48;;;;;;;0.80;0.80;;;22.00;32.20;;;;;;5047902;28;19982;-61
2021/01/21 02:05:17;;;;;;;1.02;0.90;;;22.00;32.20;;;;;;5047318;28;20461;-61
2021/01/21 02:07:44;;;;;;;1.27;1.17;;;22.00;32.20;;;;;;5047798;28;20136;-61
2021/01/21 02:10:13;;;;;;;1.00;0.90;;;22.00;32.20;;;;;;5029376;28;20052;-61
2021/01/21 02:13:20;;;;;;;1.30;1.00;;;22.00;32.20;;;;;;5046852;28;20103;-61
2021/01/21 02:16:17;;;;;;;0.88;0.60;;;22.00;32.30;;;;;;5032682;28;20511;-61
2021/01/21 02:19:15;;;;;;;1.83;0.98;;;22.00;32.30;;;;;;5046643;28;20300;-60
2021/01/21 02:22:21;;;;;;;0.85;0.77;;;22.00;32.30;;;;;;5028710;28;20044;-61
2021/01/21 02:25:13;;;;;;;0.85;0.85;;;22.00;32.30;;;;;;5046280;28;20087;-60
2021/01/21 02:28:15;;;;;;;0.75;0.75;;;22.00;32.30;;;;;;5046413;28;20107;-61
2021/01/21 02:31:02;;;;;;;0.95;0.75;;;21.90;32.30;;;;;;5029471;28;20044;-61
2021/01/21 02:33:56;;;;;;;0.60;0.60;;;21.90;32.20;;;;;;5046375;28;20067;-61
2021/01/21 02:36:29;;;;;;;1.13;0.80;;;22.00;32.30;;;;;;5032986;28;20077;-60
2021/01/21 02:38:56;;;;;;;0.60;0.55;;;21.90;32.20;;;;;;5029315;28;20127;-61
2021/01/21 02:41:23;;;;;;;0.85;0.80;;;21.90;32.20;;;;;;5046868;28;20057;-61
2021/01/21 02:43:52;;;;;;;0.93;0.82;;;21.90;32.30;;;;;;5046980;28;20077;-61
2021/01/21 02:46:20;;;;;;;1.27;0.90;;;21.90;32.30;;;;;;5047229;28;20049;-61
2021/01/21 02:48:50;;;;;;;0.68;0.68;;;21.90;32.30;;;;;;5046795;28;20262;-60
2021/01/21 02:51:42;;;;;;;1.20;0.70;;;21.90;32.20;;;;;;5045423;28;20502;-61
2021/01/21 02:54:48;;;;;;;0.88;0.88;;;22.00;32.30;;;;;;5046717;28;20079;-61
2021/01/21 02:57:54;;;;;;;0.60;0.60;;;22.00;32.30;;;;;;5046233;28;20160;-61
2021/01/21 03:00:22;;;;;;;0.82;0.70;;;22.00;32.20;;;;;;5034824;28;20052;-60
2021/01/21 03:02:55;;;;;;;0.70;0.70;;;22.00;32.20;;;;;;5046799;28;20049;-60
2021/01/21 03:05:22;;;;;;;1.30;0.90;;;21.90;32.20;;;;;;5046323;28;20048;-61
2021/01/21 03:07:49;;;;;;;0.68;0.65;;;21.90;32.20;;;;;;5046620;28;20049;-61
2021/01/21 03:10:21;;;;;;;0.77;0.60;;;21.90;32.20;;;;;;5046706;28;20469;-61
2021/01/21 03:12:55;;;;;;;1.40;0.88;;;21.90;32.10;;;;;;5028906;28;20140;-60
2021/01/21 03:15:23;;;;;;;1.15;0.90;;;22.00;32.20;;;;;;5046488;28;20103;-61
2021/01/21 03:17:50;;;;;;;0.93;0.70;;;21.90;32.20;;;;;;5047027;28;20138;-61
2021/01/21 03:20:17;;;;;;;0.85;0.70;;;21.90;32.20;;;;;;5046997;28;20048;-60
2021/01/21 03:22:44;;;;;;;0.77;0.63;;;21.90;32.20;;;;;;5047240;28;20157;-61
2021/01/21 03:25:12;;;;;;;0.52;0.50;;;21.90;32.20;;;;;;5045442;28;20822;-61
2021/01/21 03:27:39;;;;;;;0.80;0.80;;;21.90;32.20;;;;;;5046563;28;20555;-61
2021/01/21 03:30:07;;;;;;;0.50;0.50;;;21.90;32.20;;;;;;5045411;28;20073;-61
2021/01/21 03:32:37;;;;;;;0.63;0.63;;;21.90;32.20;;;;;;5046090;28;20053;-64
2021/01/21 03:35:06;;;;;;;0.73;0.63;;;21.90;32.20;;;;;;5049368;28;20533;-61
2021/01/21 03:37:33;;;;;;;0.60;0.60;;;21.90;32.20;;;;;;5048968;28;20048;-61
2021/01/21 03:40:00;;;;;;;0.65;0.65;;;21.90;32.20;;;;;;5049343;28;20045;-61
2021/01/21 03:42:27;;;;;;;0.90;0.80;;;21.90;32.20;;;;;;5050572;28;20045;-61
2021/01/21 03:44:54;;;;;;;0.90;0.90;;;21.90;32.20;;;;;;5049522;28;20534;-61
2021/01/21 03:47:21;;;;;;;0.50;0.47;;;21.90;32.20;;;;;;5050497;28;20049;-61
2021/01/21 03:49:48;;;;;;;0.65;0.65;;;21.90;32.20;;;;;;5047819;28;20124;-61
2021/01/21 03:52:14;;;;;;;0.55;0.40;;;21.90;32.20;;;;;;5049336;28;20102;-60
2021/01/21 03:54:41;;;;;;;0.43;0.40;;;21.90;32.20;;;;;;5049612;28;20106;-61
2021/01/21 03:57:07;;;;;;;1.25;0.80;;;21.90;32.10;;;;;;5048904;28;20072;-60
2021/01/21 03:59:34;;;;;;;0.40;0.40;;;21.90;32.10;;;;;;5032000;28;20232;-60
2021/01/21 04:02:01;;;;;;;1.42;0.82;;;21.90;32.10;;;;;;5048300;28;20052;-61
2021/01/21 04:04:28;;;;;;;0.40;0.40;;;21.90;32.10;;;;;;5049947;28;20444;-61
2021/01/21 04:06:54;;;;;;;0.50;0.50;;;21.90;32.10;;;;;;5049653;28;20068;-61
2021/01/21 04:09:21;;;;;;;1.30;0.50;;;21.90;32.10;;;;;;5049296;28;20085;-60
2021/01/21 04:11:48;;;;;;;0.60;0.60;;;21.90;32.10;;;;;;5049160;28;20136;-61
2021/01/21 04:14:14;;;;;;;0.70;0.70;;;21.90;32.10;;;;;;5049062;28;20183;-61
2021/01/21 04:16:41;;;;;;;0.60;0.60;;;21.90;32.10;;;;;;5049141;28;20118;-61
2021/01/21 04:19:08;;;;;;;0.50;0.47;;;21.90;32.10;;;;;;5031698;28;20505;-61
2021/01/21 04:21:35;;;;;;;0.60;0.60;;;21.90;32.10;;;;;;5049453;28;20052;-61
2021/01/21 04:24:03;;;;;;;0.65;0.43;;;21.90;32.10;;;;;;5049483;28;20145;-61
2021/01/21 04:26:30;;;;;;;0.50;0.50;;;21.90;32.10;;;;;;5049497;28;20057;-61
2021/01/21 04:28:56;;;;;;;0.50;0.47;;;21.90;32.10;;;;;;5049191;28;20044;-60
2021/01/21 04:31:23;;;;;;;0.98;0.68;;;21.90;32.10;;;;;;5048173;28;20047;-61
2021/01/21 04:33:50;;;;;;;0.40;0.40;;;21.90;32.10;;;;;;5049141;28;20139;-60
2021/01/21 04:36:16;;;;;;;0.63;0.55;;;21.80;32.10;;;;;;5049207;28;20073;-61
2021/01/21 04:38:43;;;;;;;0.43;0.43;;;21.80;32.10;;;;;;5048932;28;20052;-61
2021/01/21 04:41:11;;;;;;;0.82;0.70;;;21.90;32.10;;;;;;5048250;28;20126;-60
2021/01/21 04:43:38;;;;;;;0.60;0.55;;;21.80;32.10;;;;;;5048446;28;20398;-60
2021/01/21 04:46:08;;;;;;;0.75;0.60;;;21.90;32.10;;;;;;5047073;28;20104;-61
2021/01/21 04:48:35;;;;;;;0.40;0.40;;;21.90;32.10;;;;;;5049779;28;20049;-60
2021/01/21 04:51:02;;;;;;;0.40;0.40;;;21.90;32.10;;;;;;5048575;28;20056;-61
2021/01/21 04:53:31;;;;;;;0.43;0.43;;;21.90;32.10;;;;;;5048803;28;20132;-61
2021/01/21 04:56:04;;;;;;;0.50;0.50;;;21.90;32.00;;;;;;5048610;28;20102;-60
2021/01/21 04:58:38;;;;;;;0.60;0.60;;;21.90;32.00;;;;;;5046522;28;20092;-61
2021/01/21 05:01:05;;;;;;;0.40;0.40;;;21.90;32.00;;;;;;5048284;28;20076;-61
2021/01/21 05:03:32;;;;;;;0.75;0.50;;;21.90;32.00;;;;;;5047584;28;20060;-61
2021/01/21 05:06:00;;;;;;;0.77;0.43;;;21.90;32.10;;;;;;5045195;28;20049;-61
2021/01/21 05:08:27;;;;;;;0.30;0.30;;;21.80;32.00;;;;;;5043949;28;20072;-61
2021/01/21 05:10:54;;;;;;;0.60;0.60;;;21.80;32.10;;;;;;5047425;28;20075;-60
2021/01/21 05:13:20;;;;;;;0.70;0.50;;;21.80;32.00;;;;;;5042614;28;20063;-61
2021/01/21 05:15:47;;;;;;;0.55;0.55;;;21.80;32.00;;;;;;5038761;28;20045;-61
2021/01/21 05:18:14;;;;;;;0.60;0.60;;;21.80;32.10;;;;;;5047880;28;20124;-60
2021/01/21 05:20:41;;;;;;;0.30;0.30;;;21.80;32.10;;;;;;5038136;28;20049;-64
2021/01/21 05:23:07;;;;;;;0.45;0.45;;;21.80;32.10;;;;;;5038063;28;20049;-60
2021/01/21 05:25:34;;;;;;;0.40;0.40;;;21.80;32.10;;;;;;5045450;28;20581;-61
2021/01/21 05:28:06;;;;;;;0.40;0.40;;;21.80;32.10;;;;;;5046622;28;20041;-61
2021/01/21 05:30:33;;;;;;;0.35;0.35;;;21.80;32.10;;;;;;5030735;28;20059;-61
2021/01/21 05:33:01;;;;;;;0.32;0.32;;;21.80;32.10;;;;;;5047111;28;20052;-61
2021/01/21 05:35:28;;;;;;;0.50;0.50;;;21.80;32.10;;;;;;5047168;28;20402;-61
2021/01/21 05:37:58;;;;;;;0.60;0.52;;;21.80;32.10;;;;;;5047639;28;20049;-61
2021/01/21 05:40:27;;;;;;;;;;;21.80;32.10;;;;;;5047105;28;20056;-61
2021/01/21 05:42:55;;;;;;;0.40;0.30;;;21.80;32.00;;;;;;5047676;28;19968;-61
2021/01/21 05:45:24;;;;;;;0.40;0.32;;;21.80;32.10;;;;;;5042534;28;20369;-60
2021/01/21 05:47:58;;;;;;;0.35;0.30;;;21.90;32.10;;;;;;5037494;28;20045;-60
2021/01/21 05:50:27;;;;;;;0.63;0.55;;;21.80;32.00;;;;;;5037035;28;20469;-61
2021/01/21 05:52:56;;;;;;;0.38;0.38;;;21.80;32.00;;;;;;5038425;28;20103;-61
2021/01/21 05:55:24;;;;;;;0.20;0.20;;;21.80;32.00;;;;;;5042068;28;20080;-60
2021/01/21 05:57:52;;;;;;;0.35;0.35;;;21.80;32.00;;;;;;5039131;28;20098;-61
2021/01/21 06:00:20;;;;;;;0.90;0.40;;;21.80;32.00;;;;;;5041045;28;20045;-61
2021/01/21 06:02:52;;;;;;;0.82;0.43;;;21.80;31.90;;;;;;5045719;28;20098;-61
2021/01/21 06:05:20;;;;;;;0.22;0.22;;;21.80;31.90;;;;;;5042485;28;20067;-61
2021/01/21 06:07:48;;;;;;;1.05;0.32;;;21.80;31.90;;;;;;5029956;28;20049;-61
2021/01/21 06:10:17;;;;;;;0.40;0.40;;;21.80;31.80;;;;;;5043936;28;20111;-61
2021/01/21 06:12:45;;;;;;;0.65;0.45;;;21.80;31.70;;;;;;5040839;28;20716;-61
2021/01/21 06:15:14;;;;;;;1.08;0.55;;;21.80;31.60;;;;;;5025456;28;20124;-65
2021/01/21 06:17:44;;;;;;;0.43;0.43;;;21.80;31.50;;;;;;5036183;28;20053;-61
2021/01/21 06:20:13;;;;;;;0.63;0.50;;;21.80;31.40;;;;;;5034224;28;20049;-61
2021/01/21 06:22:41;;;;;;;1.33;0.82;;;21.80;31.40;;;;;;5023967;28;20124;-61
2021/01/21 06:25:14;;;;;;;0.40;0.40;;;21.90;31.30;;;;;;5036750;28;20087;-61
2021/01/21 06:27:43;;;;;;;0.93;0.45;;;21.90;31.50;;;;;;5022119;28;20107;-61
2021/01/21 06:30:16;;;;;;;0.73;0.43;;;21.90;31.50;;;;;;5039606;28;20116;-61
2021/01/21 06:33:05;;;;;;;1.27;0.47;;;21.90;31.50;;;;;;5038510;28;20125;-61
2021/01/21 06:35:38;;;;;;;0.52;0.52;;;22.00;31.60;;;;;;5036056;28;20059;-62
2021/01/21 06:38:10;;;;;;;2.38;0.60;;;22.10;31.60;;;;;;5035137;28;20120;-64
2021/01/21 06:40:43;;;;;;;0.80;0.43;;;22.20;31.60;;;;;;5047689;28;20150;-61
2021/01/21 06:43:24;;;;;;;0.60;0.60;;;22.30;31.50;;;;;;5031609;28;20134;-61
2021/01/21 06:45:50;;;;;;;2.45;0.63;;;22.40;31.50;;;;;;5019277;28;20048;-64
2021/01/21 06:48:19;;;;;;;0.95;0.73;;;22.50;31.40;;;;;;5039748;28;20120;-61
2021/01/21 06:50:46;;;;;;;1.38;0.50;;;22.50;31.50;;;;;;5037163;28;20136;-64
2021/01/21 06:53:14;;;;;;;0.50;0.50;;;22.70;31.30;;;;;;5028959;28;20052;-64
2021/01/21 06:55:48;;;;;;;1.13;0.75;;;22.70;31.10;;;;;;5031341;28;20052;-61
2021/01/21 06:58:48;;;;;;;0.60;0.52;;;22.80;31.00;;;;;;5014133;28;20871;-64
2021/01/21 07:01:42;;;;;;;0.90;0.65;;;22.90;30.80;;;;;;5033127;28;20110;-62
2021/01/21 07:04:21;;;;;;;1.23;0.80;;;23.00;30.80;;;;;;5016830;28;20052;-62
2021/01/21 07:07:00;;;;;;;;;;;23.10;31.30;;;;;;5038747;28;20045;-61
2021/01/21 07:09:27;;;;;;;6.95;0.68;;;23.20;31.50;;;;;;5033598;28;19937;-65
2021/01/21 07:12:00;;;;;;;1.08;0.70;;;23.20;31.70;;;;;;5036474;28;20080;-65
2021/01/21 07:14:30;;;;;;;0.80;0.80;;;23.30;31.90;;;;;;5038661;28;20095;-64
2021/01/21 07:17:03;;;;;;;0.80;0.80;;;23.40;31.90;;;;;;5044727;28;20394;-65
2021/01/21 07:19:47;;;;;;;1.55;1.15;;;23.50;32.00;;;;;;5022010;28;20052;-63
2021/01/21 07:22:22;;;;;;;0.82;0.63;;;23.60;32.10;;;;;;5020935;28;20047;-65
2021/01/21 07:25:06;;;;;;;1.55;0.82;;;23.60;32.10;;;;;;5042507;28;20040;-66
2021/01/21 07:27:34;;;;;;;8.38;1.55;;;23.80;32.10;;;;;;5037507;28;20052;-66
2021/01/21 07:30:23;;;;;;;1.75;1.23;;;23.80;31.90;;;;;;5040438;28;20049;-66
2021/01/21 07:33:21;;;;;;;1.52;0.82;;;23.80;31.90;;;;;;5037954;28;20188;-66
2021/01/21 07:35:52;;;;;;;1.88;1.00;;;23.80;31.90;;;;;;5036582;28;20657;-63
2021/01/21 07:38:47;;;;;;;3.28;1.20;;;23.80;31.80;;;;;;5028317;28;20072;-67
2021/01/21 07:41:53;;;;;;;6.68;2.00;;;23.80;31.50;;;;;;5034879;28;20048;-66
2021/01/21 07:44:20;;;;;;;2.17;1.30;;;23.80;31.30;;;;;;5036777;28;20473;-70
2021/01/21 07:46:47;;;;;;;6.28;1.80;;;23.70;31.10;;;;;;5036671;28;20088;-68
2021/01/21 07:49:26;;;;;;;5.25;1.83;;;23.80;31.30;;;;;;5020225;28;20046;-64
2021/01/21 07:52:04;;;;;;;3.92;1.63;;;23.80;31.30;;;;;;5036006;28;20096;-70
2021/01/21 07:54:52;;;;;;;4.25;2.00;;;23.80;31.10;;;;;;5038789;28;20084;-68
2021/01/21 07:57:22;;;;;;;3.95;1.88;;;23.80;31.10;;;;;;5033547;28;20137;-67
2021/01/21 07:59:59;;;;;;;2.70;1.75;;;23.80;31.20;;;;;;5041329;28;20048;-66
2021/01/21 08:02:46;;;;;;;6.50;2.00;;;23.80;31.20;;;;;;5024211;28;20637;-69
2021/01/21 08:05:14;;;;;;;3.63;1.75;;;23.80;31.30;;;;;;5023348;28;20132;-67
2021/01/21 08:07:50;;;;;;;2.53;1.48;;;23.80;31.30;;;;;;5041988;28;20055;-68
2021/01/21 08:10:28;;;;;;;3.78;1.70;;;23.80;31.40;;;;;;5024500;28;20061;-70
2021/01/21 08:13:00;;;;;;;4.22;1.85;;;23.90;31.40;;;;;;5041269;28;20213;-66
2021/01/21 08:15:28;;;;;;;2.78;1.55;;;23.90;31.40;;;;;;5033167;28;20091;-68
2021/01/21 08:17:56;;;;;;;3.90;1.75;;;23.90;31.40;;;;;;5041972;28;20068;-66
2021/01/21 08:20:25;;;;;;;4.85;1.90;;;23.90;31.40;;;;;;5020066;28;20044;-67
2021/01/21 08:23:00;;;;;;;6.00;1.80;;;24.00;31.30;;;;;;5024336;28;20048;-65
2021/01/21 08:25:31;;;;;;;3.88;1.75;;;23.90;31.20;;;;;;5006837;28;20042;-67
2021/01/21 08:27:58;;;;;;;6.57;2.40;;;23.90;31.20;;;;;;5038960;28;20499;-68
2021/01/21 08:30:29;;;;;;;7.15;2.67;;;24.00;31.50;;;;;;5038938;28;20469;-67
2021/01/21 08:33:11;;;;;;;5.22;1.90;;;24.00;31.60;;;;;;5039121;28;20411;-67
2021/01/21 08:35:59;;;;;;;4.72;2.30;;;24.00;31.70;;;;;;5038917;28;20072;-65
2021/01/21 08:38:32;;;;;;;4.50;2.75;;;24.00;31.70;;;;;;5039483;28;20053;-66
2021/01/21 08:41:00;;;;;;;8.10;3.78;;;24.00;31.80;;;;;;5038687;28;20045;-64
2021/01/21 08:43:29;;;;;;;7.72;3.95;;;24.00;31.90;;;;;;5037921;28;20506;-68
2021/01/21 08:45:57;;;;;;;7.32;3.25;;;24.00;31.90;;;;;;5038648;28;20064;-67
2021/01/21 08:48:28;;;;;;;7.40;3.58;;;24.00;31.80;;;;;;5042573;28;20064;-67
2021/01/21 08:50:56;;;;;;;11.25;3.92;;;24.00;31.90;;;;;;5044699;28;20056;-65
2021/01/21 08:53:24;;;;;;;10.35;4.57;;;24.00;31.90;;;;;;5060341;28;20098;-67
2021/01/21 08:55:54;;;;;;;13.15;5.13;;;24.00;31.90;;;;;;5061078;28;20053;-68
2021/01/21 08:58:28;;;;;;;12.45;4.55;;;24.00;31.90;;;;;;5061207;28;20068;-67
2021/01/21 09:01:04;;;;;;;13.05;5.90;;;24.00;31.80;;;;;;5062343;28;20049;-66
2021/01/21 09:03:51;;;;;;;13.10;6.07;;;24.00;31.80;;;;;;5062002;28;20390;-68
2021/01/21 09:06:21;;;;;;;13.27;6.13;;;24.00;31.80;;;;;;5041590;28;20059;-67
2021/01/21 09:08:56;;;;;;;13.85;6.72;;;24.10;31.80;;;;;;5056189;28;20128;-68
2021/01/21 09:11:40;;;;;;;15.45;6.30;;;24.10;31.80;;;;;;5057340;28;20103;-69
2021/01/21 09:14:18;;;;;;;18.40;7.38;;;24.10;31.80;;;;;;5057558;28;20099;-69
2021/01/21 09:16:55;;;;;;;18.58;7.85;;;24.10;31.80;;;;;;5056964;28;20053;-69
2021/01/21 09:19:40;;;;;;;17.83;8.25;;;24.10;31.80;;;;;;5044868;28;20049;-67
2021/01/21 09:22:09;;;;;;;21.30;9.55;;;24.10;31.00;;;;;;5053130;28;20266;-66
2021/01/21 09:25:01;;;;;;;27.30;10.20;;;24.10;30.80;;;;;;5036731;28;20053;-66
2021/01/21 09:27:53;;;;;;;28.75;11.93;;;24.10;30.50;;;;;;5035261;28;20137;-65
2021/01/21 09:30:21;;;;;;;26.55;10.77;;;24.10;30.60;;;;;;5036814;28;20123;-69
2021/01/21 09:32:48;;;;;;;29.35;10.18;;;24.10;30.30;;;;;;5051082;28;20049;-68
2021/01/21 09:35:17;;;;;;;28.38;10.52;;;24.10;30.60;;;;;;5056718;28;20055;-67
2021/01/21 09:37:53;;;;;;;24.15;9.70;;;24.20;30.90;;;;;;5056709;28;20072;-68
2021/01/21 09:40:22;;;;;;;24.60;10.48;;;24.20;31.00;;;;;;5056592;28;20044;-68
2021/01/21 09:42:54;;;;;;;24.65;10.45;;;24.20;31.10;;;;;;5050809;28;20048;-68
2021/01/21 09:45:21;;;;;;;28.98;10.63;;;24.20;31.20;;;;;;5051588;28;20080;-66
2021/01/21 09:51:38;;;;;;;28.08;11.40;;;24.20;31.10;;;;;;5031909;28;20043;-66
2021/01/21 09:54:05;;;;;;;28.40;11.27;;;24.30;31.20;;;;;;5034999;28;20851;-65
2021/01/21 09:56:37;;;;;;;27.23;11.65;;;24.30;31.20;;;;;;5036774;28;20049;-66
2021/01/21 09:59:03;;;;;;;33.33;13.00;;;24.30;31.20;;;;;;5033905;28;20633;-65
2021/01/21 10:01:30;;;;;;;28.27;11.50;;;24.30;31.20;;;;;;5016612;28;20040;-64
2021/01/21 10:03:57;;;;;;;34.75;13.38;;;24.30;31.20;;;;;;5033524;28;20063;-67
2021/01/21 10:06:24;;;;;;;32.05;13.68;;;24.30;31.20;;;;;;5036374;28;20132;-67
2021/01/21 10:08:51;;;;;;;30.27;12.60;;;24.40;31.30;;;;;;5034448;28;20044;-67
2021/01/21 10:11:17;;;;;;;30.35;13.07;;;24.40;31.20;;;;;;5033885;28;20169;-65
2021/01/21 10:13:44;;;;;;;33.92;13.50;;;24.40;31.20;;;;;;5036590;28;20071;-68
2021/01/21 10:16:10;;;;;;;37.72;15.90;;;24.40;31.10;;;;;;5034836;28;20048;-67
2021/01/21 10:18:37;;;;;;;39.72;15.98;;;24.50;31.10;;;;;;5018437;28;20094;-68
2021/01/21 10:21:04;;;;;;;38.88;15.40;;;24.50;31.10;;;;;;5038250;28;20116;-66
2021/01/21 10:23:32;;;;;;;39.75;16.63;;;24.50;31.10;;;;;;5020456;28;20132;-67
2021/01/21 10:26:00;;;;;;;38.08;14.07;;;24.50;31.00;;;;;;5036583;28;20053;-64
2021/01/21 10:28:26;;;;;;;35.72;15.68;;;24.60;31.00;;;;;;5038426;28;20052;-67
2021/01/21 10:30:53;;;;;;;40.55;16.33;;;24.60;31.00;;;;;;5032605;28;20128;-68
2021/01/21 10:33:20;;;;;;;35.15;14.40;;;24.70;31.00;;;;;;5035017;28;20063;-65
2021/01/21 10:35:48;;;;;;;36.03;14.70;;;24.70;31.00;;;;;;5034559;28;20063;-68
2021/01/21 10:38:14;;;;;;;39.05;15.32;;;24.70;30.90;;;;;;5038446;28;20064;-70
2021/01/21 10:40:41;;;;;;;39.72;15.48;;;24.80;30.90;;;;;;5023264;28;20074;-69
2021/01/21 10:43:08;;;;;;;34.38;15.35;;;24.80;30.80;;;;;;5041620;28;20132;-64
2021/01/21 10:45:35;;;;;;;36.97;14.10;;;24.80;30.70;;;;;;5043106;28;20061;-66
2021/01/21 10:48:02;;;;;;;38.03;15.43;;;24.90;30.60;;;;;;5021978;28;20037;-67
2021/01/21 10:50:29;;;;;;;33.38;13.90;;;24.90;30.60;;;;;;5040321;28;20152;-65
2021/01/21 10:52:56;;;;;;;34.30;14.93;;;25.00;31.10;;;;;;5036491;28;20048;-66
2021/01/21 10:55:22;;;;;;;33.67;13.70;;;25.00;30.50;;;;;;5042667;28;20387;-62
2021/01/21 10:57:51;;;;;;;33.00;13.73;;;25.10;30.60;;;;;;5041115;28;20833;-62
2021/01/21 11:00:19;;;;;;;33.47;13.95;;;25.10;30.60;;;;;;5040288;28;20051;-66
2021/01/21 11:02:45;;;;;;;30.45;12.75;;;25.10;30.60;;;;;;5040325;28;20049;-63
2021/01/21 11:05:14;;;;;;;30.05;12.18;;;25.20;30.60;;;;;;5060523;28;20080;-64
2021/01/21 11:07:40;;;;;;;33.30;12.85;;;25.20;30.60;;;;;;5056557;28;21474;-63
2021/01/21 11:10:07;;;;;;;30.42;11.70;;;25.20;30.60;;;;;;5012660;28;20049;-63
2021/01/21 11:12:48;;;;;;;30.38;12.43;;;25.30;30.50;;;;;;5029987;28;20208;-62
2021/01/21 11:15:16;;;;;;;32.47;13.68;;;25.30;30.50;;;;;;5042949;28;20048;-62
2021/01/21 11:17:44;;;;;;;34.22;13.75;;;25.40;30.40;;;;;;5039636;28;20136;-65
2021/01/21 11:20:15;;;;;;;31.33;11.68;;;25.40;30.30;;;;;;5024596;28;20139;-61
2021/01/21 11:22:42;;;;;;;31.80;12.80;;;25.40;30.10;;;;;;5041362;28;20128;-62
2021/01/21 11:25:11;;;;;;;29.95;11.57;;;25.40;30.10;;;;;;5022053;28;20147;-65
2021/01/21 11:27:58;;;;;;;31.80;12.48;;;25.50;30.20;;;;;;5041948;28;20052;-64
2021/01/21 11:30:25;;;;;;;31.60;11.23;;;25.50;30.20;;;;;;5041469;28;20118;-62
2021/01/21 11:32:52;;;;;;;30.98;13.07;;;25.50;30.10;;;;;;5043282;28;20908;-65
2021/01/21 11:35:19;;;;;;;27.83;11.90;;;25.50;30.10;;;;;;5040239;28;20509;-65
2021/01/21 11:37:45;;;;;;;26.02;11.05;;;25.60;30.10;;;;;;5040458;28;20115;-67
2021/01/21 11:40:13;;;;;;;31.70;12.38;;;25.60;30.10;;;;;;5040866;28;20152;-69
2021/01/21 11:42:40;;;;;;;28.35;11.52;;;25.60;30.10;;;;;;5038928;28;20179;-69
2021/01/21 11:45:08;;;;;;;28.05;11.98;;;25.60;30.10;;;;;;5039907;28;20091;-71
2021/01/21 11:47:39;;;;;;;28.50;12.00;;;25.60;30.30;;;;;;5041953;28;20048;-70
2021/01/21 11:50:12;;;;;;;33.05;13.10;;;25.60;30.30;;;;;;5042091;28;20049;-65
2021/01/21 11:52:39;;;;;;;32.60;13.48;;;25.70;30.60;;;;;;5035353;28;20717;-67
2021/01/21 11:55:08;;;;;;;31.45;12.48;;;25.70;30.60;;;;;;5035338;28;20229;-66
2021/01/21 11:57:36;;;;;;;31.60;12.93;;;25.70;30.60;;;;;;5034521;28;20136;-65
2021/01/21 12:00:09;;;;;;;32.17;13.25;;;25.70;30.70;;;;;;5040935;28;20069;-69
2021/01/21 12:02:36;;;;;;;29.48;11.93;;;25.80;30.70;;;;;;5027632;28;20055;-65
2021/01/21 12:05:04;;;;;;;34.90;11.93;;;25.80;30.70;;;;;;5039263;28;20052;-68
2021/01/21 12:07:31;;;;;;;29.05;12.85;;;25.80;30.60;;;;;;5043469;28;20127;-68
2021/01/21 12:09:58;;;;;;;30.77;11.95;;;25.90;30.70;;;;;;5040570;28;20152;-68
2021/01/21 12:12:25;;;;;;;28.90;12.65;;;25.80;30.60;;;;;;5020987;28;20084;-65
2021/01/21 12:14:52;;;;;;;27.88;11.32;;;25.90;30.70;;;;;;5043748;28;20095;-63
2021/01/21 12:17:19;;;;;;;25.45;11.77;;;25.90;30.60;;;;;;5041511;28;20155;-64
2021/01/21 12:19:46;;;;;;;28.02;10.55;;;25.90;30.70;;;;;;5037783;28;20186;-65
2021/01/21 12:22:13;;;;;;;25.83;10.38;;;25.90;30.80;;;;;;5042285;28;20102;-69
2021/01/21 12:24:41;;;;;;;27.40;10.75;;;25.90;30.70;;;;;;5041341;28;20053;-68
2021/01/21 12:27:09;;;;;;;25.83;10.32;;;25.90;30.60;;;;;;5025756;28;20112;-67
2021/01/21 12:29:36;;;;;;;23.48;9.38;;;25.90;30.40;;;;;;5040694;28;20707;-68
2021/01/21 12:32:04;;;;;;;24.75;10.10;;;26.00;30.30;;;;;;5026075;28;20167;-63
2021/01/21 12:34:31;;;;;;;24.83;11.07;;;26.00;30.10;;;;;;5043172;28;20163;-63
2021/01/21 12:36:58;;;;;;;25.13;9.90;;;26.00;30.00;;;;;;5039162;28;20044;-60
2021/01/21 12:39:26;;;;;;;22.58;9.70;;;25.90;30.00;;;;;;5038703;28;20053;-68
2021/01/21 12:41:53;;;;;;;19.52;8.70;;;25.90;30.00;;;;;;5031012;28;20144;-64
2021/01/21 12:44:20;;;;;;;21.52;9.23;;;25.90;30.00;;;;;;5048317;28;20134;-63
2021/01/21 12:46:46;;;;;;;23.42;9.68;;;25.90;30.40;;;;;;5045301;28;20787;-65
2021/01/21 12:49:14;;;;;;;20.77;8.45;;;25.90;30.50;;;;;;5041513;28;20095;-66
2021/01/21 12:51:41;;;;;;;17.90;7.78;;;25.90;30.20;;;;;;5041934;28;20053;-64
2021/01/21 12:54:08;;;;;;;21.75;8.98;;;25.90;30.00;;;;;;5036091;28;20147;-63
2021/01/21 12:56:35;;;;;;;22.85;9.55;;;25.90;29.90;;;;;;5042933;28;20129;-64
2021/01/21 12:59:02;;;;;;;18.45;7.95;;;25.90;29.90;;;;;;5039864;28;20502;-63
2021/01/21 13:01:29;;;;;;;20.95;8.30;;;25.90;29.90;;;;;;5039037;28;20036;-64
2021/01/21 13:03:57;;;;;;;21.13;8.88;;;25.90;29.80;;;;;;5042872;28;20155;-63
2021/01/21 13:06:23;;;;;;;22.05;8.65;;;25.90;29.80;;;;;;5038720;28;20047;-63